Time;durP1;ratioP1;P1;durP2;ratioP2;P2;SDS_P1;SDS_P2;PMS_P1;PMS_P2;Temp;Humidity;BMP_temperature;BMP_pressure;BME280_temperature;BME280_humidity;BME280_pressure;Samples;Min_cycle;Max_cycle;Signal;HPM_P1;HPM_P2
2021/12/04 00:01:18;;;;;;;;;0.33;0.33;;;;;10.31;88.13;99471.50;4994311;28;46136;-96
2021/12/04 00:03:44;;;;;;;;;2.00;2.00;;;;;10.35;88.56;99468.13;5012745;28;45165;-96
2021/12/04 00:06:28;;;;;;;;;1.67;1.00;;;;;10.38;88.55;99454.19;4989676;28;45291;-96
2021/12/04 00:09:04;;;;;;;;;1.00;1.00;;;;;10.54;88.50;99475.59;4998997;28;45300;-96
2021/12/04 00:11:37;;;;;;;;;0.00;0.00;;;;;10.54;88.79;99465.09;4994924;28;47476;-96
2021/12/04 00:14:03;;;;;;;;;2.00;2.00;;;;;10.61;88.52;99457.44;5010551;28;45397;-96
2021/12/04 00:16:29;;;;;;;;;2.33;2.33;;;;;10.61;88.76;99459.16;4991242;28;45375;-96
2021/12/04 00:18:57;;;;;;;;;0.00;0.00;;;;;10.51;89.06;99434.44;4992744;28;45472;-97
2021/12/04 00:21:24;;;;;;;;;0.00;0.00;;;;;10.63;88.78;99431.22;4992297;28;47655;-96
2021/12/04 00:23:49;;;;;;;;;0.00;0.00;;;;;10.67;88.81;99442.69;5012734;28;45250;-97
2021/12/04 00:26:15;;;;;;;;;0.00;0.00;;;;;10.56;89.05;99410.94;5008229;28;45323;-96
2021/12/04 00:28:42;;;;;;;;;1.00;0.00;;;;;10.77;89.17;99449.03;4993133;28;45258;-96
2021/12/04 00:31:12;;;;;;;;;1.00;0.00;;;;;10.64;89.01;99425.13;4993830;28;47528;-96
2021/12/04 00:33:39;;;;;;;;;0.00;0.00;;;;;10.66;89.06;99420.78;5010713;28;45485;-96
2021/12/04 00:36:37;;;;;;;;;0.00;0.00;;;;;10.65;89.17;99411.13;4993998;28;45164;-96
2021/12/04 04:27:43;;;;;;;;;0.00;0.00;;;;;11.85;88.82;99464.44;6104249;22;46589;31
2021/12/04 04:35:57;;;;;;;;;0.00;0.00;;;;;11.78;87.57;99470.41;5600240;22;46385;-96
2021/12/04 04:38:36;;;;;;;;;0.00;0.00;;;;;11.54;87.63;99435.81;5056353;23;45497;-96
2021/12/04 05:02:33;;;;;;;;;2.00;0.00;;;;;11.48;88.48;99410.28;5042011;28;44700;-96
2021/12/04 05:12:57;;;;;;;;;4.33;3.00;;;;;11.55;88.89;99411.28;4980899;28;44873;-96
2021/12/04 05:31:08;;;;;;;;;0.00;0.00;;;;;11.59;89.05;99407.88;5236343;22;45009;-96
2021/12/04 05:33:34;;;;;;;;;0.00;0.00;;;;;11.68;89.08;99425.53;5514784;23;46054;-96
2021/12/04 05:38:36;;;;;;;;;0.00;0.00;;;;;11.84;89.26;99447.78;5887045;22;45927;-96
2021/12/04 05:41:02;;;;;;;;;0.00;0.00;;;;;11.66;89.29;99413.22;5002237;28;44758;-96
2021/12/04 05:43:30;;;;;;;;;0.00;0.00;;;;;11.63;89.06;99411.44;5021392;28;44969;-95
2021/12/04 05:46:18;;;;;;;;;0.00;0.00;;;;;11.67;88.62;99417.66;5038814;28;44870;-96
2021/12/04 05:48:50;;;;;;;;;0.00;0.00;;;;;11.61;88.74;99411.41;5039540;28;45654;-96
2021/12/04 05:51:31;;;;;;;;;0.00;0.00;;;;;11.57;88.77;99412.19;5021484;28;44719;-96
2021/12/04 06:01:40;;;;;;;;;0.00;0.00;;;;;11.76;88.93;99443.19;5158435;22;46279;-96
2021/12/04 06:06:44;;;;;;;;;0.00;0.00;;;;;11.60;88.38;99420.13;5703140;22;45846;-96
2021/12/04 06:09:10;;;;;;;;;1.00;0.00;;;;;11.54;88.87;99412.16;5350152;23;46486;-96
2021/12/04 06:11:36;;;;;;;;;0.00;0.00;;;;;11.55;88.57;99405.13;5026190;28;45150;-96
2021/12/04 06:19:13;;;;;;;;;0.00;0.00;;;;;11.76;88.62;99440.56;4956433;28;45284;-96
2021/12/04 06:24:23;;;;;;;;;0.00;0.00;;;;;11.45;88.97;99402.31;4950077;28;44718;-96
2021/12/04 06:26:52;;;;;;;;;1.67;0.00;;;;;11.45;88.83;99397.06;5328800;23;44918;-96
2021/12/04 06:34:52;;;;;;;;;0.00;0.00;;;;;11.50;89.35;99397.16;5095773;23;45001;-96
2021/12/04 06:45:04;;;;;;;;;0.00;0.00;;;;;11.43;89.17;99385.66;5494971;23;45923;-96
2021/12/04 06:50:17;;;;;;;;;0.00;0.00;;;;;11.44;89.32;99383.91;5642721;22;45898;-96
2021/12/04 06:52:45;;;;;;;;;0.00;0.00;;;;;11.46;89.25;99390.97;5001564;28;45235;-96
2021/12/04 06:55:14;;;;;;;;;0.00;0.00;;;;;11.60;89.06;99414.88;5019642;28;44796;-96
2021/12/04 06:57:40;;;;;;;;;0.00;0.00;;;;;11.47;89.18;99379.59;4989999;28;44934;-96
2021/12/04 07:00:10;;;;;;;;;0.00;0.00;;;;;11.51;89.52;99380.56;5417325;23;46767;-96
2021/12/04 07:02:35;;;;;;;;;0.00;0.00;;;;;11.53;89.51;99372.69;5016775;28;45146;-96
2021/12/04 07:10:12;;;;;;;;;1.00;1.00;;;;;11.82;89.36;99423.19;5586571;23;45995;-96
2021/12/04 07:15:13;;;;;;;;;0.00;0.00;;;;;11.62;88.81;99378.13;5443514;23;46047;-96
2021/12/04 07:17:39;;;;;;;;;0.00;0.00;;;;;11.84;89.26;99413.59;4993909;28;45540;-85
2021/12/04 07:20:07;;;;;;;;;1.00;1.00;;;;;11.80;89.33;99389.84;5011464;28;46303;-84
2021/12/04 07:22:34;;;;;;;;;0.33;0.33;;;;;11.80;89.41;99398.59;5015884;28;46751;-84
2021/12/04 07:24:59;;;;;;;;;1.33;0.33;;;;;11.80;89.28;99400.38;5017832;28;45298;-86
2021/12/04 07:27:27;;;;;;;;;1.33;0.00;;;;;11.84;89.20;99384.66;4994252;28;45694;-86
2021/12/04 07:29:54;;;;;;;;;1.00;1.00;;;;;11.91;89.74;99403.16;5011217;28;48840;-86
2021/12/04 07:32:19;;;;;;;;;1.00;1.00;;;;;11.88;89.45;99393.47;5011165;28;45493;-86
2021/12/04 07:34:44;;;;;;;;;0.00;0.00;;;;;11.92;89.43;99411.09;5011694;28;45429;-85
2021/12/04 07:37:10;;;;;;;;;2.00;2.00;;;;;11.93;89.44;99394.44;5012366;28;45508;-85
2021/12/04 07:39:35;;;;;;;;;4.33;4.33;;;;;11.91;89.47;99387.38;4989920;28;47329;-85
2021/12/04 07:42:01;;;;;;;;;1.00;1.00;;;;;11.90;89.46;99397.03;5011015;28;45625;-85
2021/12/04 07:44:26;;;;;;;;;1.33;1.33;;;;;11.90;89.19;99397.03;5011866;28;45667;-85
2021/12/04 07:46:51;;;;;;;;;2.33;1.00;;;;;11.89;89.23;99403.16;5011471;28;45466;-84
2021/12/04 07:49:17;;;;;;;;;0.67;0.67;;;;;11.89;89.43;99407.50;5012226;28;45425;-87
2021/12/04 07:51:44;;;;;;;;;1.00;1.00;;;;;11.89;89.32;99400.53;4987384;28;45758;-89
2021/12/04 07:54:09;;;;;;;;;1.00;1.00;;;;;11.88;89.45;99404.00;5007079;28;45411;-86
2021/12/04 07:56:35;;;;;;;;;0.00;0.00;;;;;11.89;89.39;99395.25;5011981;28;45533;-86
2021/12/04 07:59:00;;;;;;;;;2.00;1.00;;;;;11.87;89.25;99396.09;5011116;28;45495;-86
2021/12/04 08:01:26;;;;;;;;;0.00;0.00;;;;;11.90;89.26;99396.16;5012199;28;45496;-86
2021/12/04 08:03:51;;;;;;;;;1.00;1.00;;;;;11.87;89.31;99402.25;5010903;28;45481;-86
2021/12/04 08:06:17;;;;;;;;;0.00;0.00;;;;;11.90;89.44;99412.81;4993824;28;45365;-87
2021/12/04 08:08:43;;;;;;;;;1.00;1.00;;;;;11.91;89.21;99411.06;5012220;28;46791;-86
2021/12/04 08:11:09;;;;;;;;;0.00;0.00;;;;;11.93;89.35;99410.22;4991993;28;45289;-86
2021/12/04 08:13:34;;;;;;;;;0.00;0.00;;;;;11.92;89.28;99413.72;4976777;28;45383;-84
2021/12/04 08:15:59;;;;;;;;;0.00;0.00;;;;;11.91;88.84;99408.44;5014514;28;45302;-85
2021/12/04 08:18:25;;;;;;;;;0.00;0.00;;;;;11.91;88.60;99422.47;5012869;28;45480;-85
2021/12/04 08:20:51;;;;;;;;;0.00;0.00;;;;;11.86;86.16;99424.13;4994410;28;45569;-86
2021/12/04 08:23:19;;;;;;;;;0.00;0.00;;;;;11.84;87.36;99433.72;4981284;28;45952;-87
2021/12/04 08:25:46;;;;;;;;;0.00;0.00;;;;;11.81;88.28;99431.94;5009181;28;45769;-85
2021/12/04 08:28:12;;;;;;;;;1.00;0.00;;;;;11.82;86.42;99433.72;5001118;28;46896;-85
2021/12/04 08:30:40;;;;;;;;;0.00;0.00;;;;;11.81;87.89;99445.06;4988802;28;45449;-86
2021/12/04 08:33:06;;;;;;;;;1.00;0.00;;;;;11.80;87.51;99438.03;5010522;28;45535;-85
2021/12/04 08:35:35;;;;;;;;;0.67;0.00;;;;;11.82;87.87;99444.22;5008505;28;45469;-85
2021/12/04 08:38:01;;;;;;;;;1.00;1.00;;;;;11.82;87.77;99454.75;5008488;28;45483;-84
2021/12/04 08:40:28;;;;;;;;;0.00;0.00;;;;;11.82;87.31;99430.19;4993068;28;45455;-85
2021/12/04 08:42:54;;;;;;;;;0.00;0.00;;;;;11.79;87.59;99438.91;5010125;28;45495;-85
2021/12/04 08:45:19;;;;;;;;;0.00;0.00;;;;;11.75;87.15;99444.94;4989681;28;45533;-85
2021/12/04 08:47:45;;;;;;;;;0.00;0.00;;;;;11.73;86.19;99446.66;5007645;28;46020;-85
2021/12/04 08:50:14;;;;;;;;;0.00;0.00;;;;;11.75;87.10;99460.72;5008604;28;45405;-85
2021/12/04 08:52:40;;;;;;;;;0.00;0.00;;;;;11.73;86.54;99458.06;4992242;28;45856;-86
2021/12/04 08:55:06;;;;;;;;;0.00;0.00;;;;;11.65;85.29;99464.03;5010865;28;45373;-86
2021/12/04 08:57:32;;;;;;;;;0.33;0.33;;;;;11.62;86.49;99468.34;5003251;28;47834;-86
2021/12/04 08:59:57;;;;;;;;;0.00;0.00;;;;;11.63;84.43;99482.38;5005643;28;45504;-86
2021/12/04 09:02:23;;;;;;;;;0.00;0.00;;;;;11.59;86.56;99488.44;4983209;28;45827;-86
2021/12/04 09:04:49;;;;;;;;;0.00;0.00;;;;;11.55;87.21;99479.59;4999260;28;45780;-85
2021/12/04 09:07:18;;;;;;;;;1.00;0.00;;;;;11.57;86.69;99480.50;4988986;28;48940;-86
2021/12/04 09:09:45;;;;;;;;;0.00;0.00;;;;;11.65;87.36;99493.81;4996744;28;45477;-86
2021/12/04 09:12:16;;;;;;;;;0.00;0.00;;;;;11.68;85.37;99490.38;4988332;28;45330;-85
2021/12/04 09:14:43;;;;;;;;;1.00;0.00;;;;;11.65;86.74;99503.47;4989982;28;45778;-85
2021/12/04 09:17:14;;;;;;;;;0.00;0.00;;;;;11.70;86.99;99499.19;4984283;28;47453;-87
2021/12/04 09:19:39;;;;;;;;;0.00;0.00;;;;;11.76;82.64;99508.94;5009269;28;45528;-85
2021/12/04 09:22:07;;;;;;;;;0.00;0.00;;;;;11.77;83.82;99516.88;4988177;28;45856;-87
2021/12/04 09:24:41;;;;;;;;;0.00;0.00;;;;;11.80;84.83;99526.56;5007802;28;45481;-85
2021/12/04 09:27:13;;;;;;;;;0.00;0.00;;;;;11.79;86.21;99524.78;5005625;28;45487;-88
2021/12/04 09:35:08;;;;;;;;;0.00;0.00;;;;;11.74;87.87;99540.44;5006822;28;45479;-86
2021/12/04 10:21:29;;;;;;;;;0.00;0.00;;;;;11.50;86.55;99629.31;5009583;28;46312;-88
2021/12/04 10:34:40;;;;;;;;;0.00;0.00;;;;;11.46;87.01;99634.44;5009268;28;45551;-86
2021/12/04 10:37:06;;;;;;;;;0.00;0.00;;;;;11.48;86.69;99633.63;4993931;28;45326;-86
2021/12/04 10:39:32;;;;;;;;;0.00;0.00;;;;;11.51;84.27;99631.09;5007920;28;45456;-87
2021/12/04 10:41:58;;;;;;;;;1.00;1.00;;;;;11.62;87.44;99633.94;4986648;28;45635;-86
2021/12/04 10:44:25;;;;;;;;;1.33;0.33;;;;;11.72;87.35;99629.81;5011007;28;45427;-86
2021/12/04 10:47:05;;;;;;;;;0.33;0.33;;;;;11.76;87.43;99629.84;4994927;28;45679;-85
2021/12/04 10:52:19;;;;;;;;;0.33;0.33;;;;;11.73;86.90;99638.56;5012411;28;45595;-86
2021/12/04 10:54:51;;;;;;;;;0.67;0.67;;;;;11.68;87.36;99642.81;5004567;28;45601;-86
2021/12/04 10:57:50;;;;;;;;;1.00;0.33;;;;;11.60;87.50;99637.38;5006792;28;45532;-86
2021/12/04 11:00:38;;;;;;;;;0.67;0.67;;;;;11.52;87.31;99645.09;4992601;28;45666;-89
2021/12/04 11:22:49;;;;;;;;;2.67;1.67;;;;;11.09;87.08;99672.09;5008991;28;45527;-86
2021/12/04 11:44:25;;;;;;;;;1.33;1.33;;;;;10.43;87.08;99714.03;4923045;28;45898;-87
2021/12/04 11:46:56;;;;;;;;;1.67;1.67;;;;;10.38;87.66;99711.28;4926407;28;46447;-86
2021/12/04 11:49:25;;;;;;;;;3.00;3.00;;;;;10.44;88.28;99721.03;4931045;28;45654;-85
2021/12/04 11:51:57;;;;;;;;;2.00;2.00;;;;;10.56;87.72;99717.94;4936136;28;45756;-84
2021/12/04 11:54:28;;;;;;;;;2.00;2.00;;;;;10.71;87.90;99728.88;4929746;28;45507;-84
2021/12/04 11:57:14;;;;;;;;;6.00;6.00;;;;;10.80;87.77;99708.94;4911738;28;48613;-83
2021/12/04 11:59:42;;;;;;;;;3.00;3.00;;;;;10.86;85.70;99706.50;4926365;28;45556;-84
2021/12/04 12:02:16;;;;;;;;;4.67;3.67;;;;;10.94;86.41;99728.63;4929668;28;45505;-83
2021/12/04 12:04:47;;;;;;;;;5.67;4.00;;;;;10.91;86.32;99746.00;4929253;28;45507;-83
2021/12/04 12:07:27;;;;;;;;;2.33;2.33;;;;;10.93;87.15;99729.44;4931918;28;45544;-83
2021/12/04 12:10:09;;;;;;;;;4.00;1.67;;;;;11.05;86.47;99741.16;4919009;28;45381;-84
2021/12/04 12:12:37;;;;;;;;;7.33;3.33;;;;;11.08;85.25;99735.94;4918766;28;48275;-84
2021/12/04 12:15:16;;;;;;;;;3.00;3.00;;;;;11.25;86.97;99746.03;4930604;28;45555;-85
2021/12/04 12:17:42;;;;;;;;;3.67;3.67;;;;;11.44;88.70;99754.41;4930227;28;45591;-85
2021/12/04 12:20:15;;;;;;;;;2.33;2.33;;;;;11.49;88.17;99760.69;4974436;28;51843;-84
2021/12/04 12:22:52;;;;;;;;;1.33;1.33;;;;;11.35;85.98;99755.03;5011809;28;45504;-84
2021/12/04 12:25:48;;;;;;;;;4.00;3.00;;;;;11.22;86.10;99765.22;5013452;28;45712;-84
2021/12/04 12:31:50;;;;;;;;;4.00;3.00;;;;;10.95;86.73;99793.38;5008135;28;45620;-85
2021/12/04 12:34:01;;;;;;;;;16.33;11.67;;;;;10.91;86.95;99781.03;5005267;28;45428;-87
2021/12/04 12:36:30;;;;;;;;;4.67;4.67;;;;;11.05;86.98;99802.44;5004577;28;45887;-84
2021/12/04 12:39:04;;;;;;;;;8.00;5.67;;;;;11.10;86.81;99813.06;5008882;28;46561;-83
2021/12/04 12:41:31;;;;;;;;;5.00;5.00;;;;;11.04;87.13;99819.03;4977431;28;46111;-84
2021/12/04 12:43:56;;;;;;;;;15.00;11.00;;;;;11.01;86.37;99825.94;5003717;28;45557;-85
2021/12/04 12:46:34;;;;;;;;;26.33;24.00;;;;;10.98;87.31;99833.75;5011732;28;45277;-85
2021/12/04 12:49:01;;;;;;;;;18.33;12.67;;;;;10.89;87.66;99830.00;4991947;28;48208;-85
2021/12/04 12:51:36;;;;;;;;;57.75;41.25;;;;;10.88;85.13;99832.56;5006725;28;45584;-84
2021/12/04 12:54:06;;;;;;;;;26.33;20.33;;;;;10.77;86.67;99827.00;5009309;28;45467;-86
2021/12/04 12:56:35;;;;;;;;;27.33;19.67;;;;;10.69;86.09;99832.94;5008504;28;45533;-84
2021/12/04 12:59:08;;;;;;;;;7.67;5.67;;;;;10.58;85.48;99834.31;5002189;28;45619;-85
2021/12/04 13:13:38;;;;;;;;;15.00;11.33;;;;;10.05;86.89;99855.38;5004127;28;45524;-84
2021/12/04 13:16:18;;;;;;;;;14.00;12.00;;;;;9.99;86.93;99847.34;5012536;28;45418;-84
2021/12/04 13:18:50;;;;;;;;;18.00;11.33;;;;;10.02;86.31;99857.94;5010294;28;45480;-84
2021/12/04 13:21:16;;;;;;;;;9.33;6.00;;;;;10.03;83.84;99862.31;5006361;28;45771;-85
2021/12/04 13:23:49;;;;;;;;;14.00;11.00;;;;;10.08;85.73;99864.19;5009817;28;45440;-84
2021/12/04 13:26:15;;;;;;;;;10.00;8.33;;;;;10.23;84.37;99862.06;5004526;28;45512;-84
2021/12/04 13:28:44;;;;;;;;;16.33;10.33;;;;;10.54;85.54;99869.19;5009257;28;45421;-84
2021/12/04 13:31:10;;;;;;;;;9.00;9.00;;;;;10.69;85.70;99868.78;4990239;28;47129;-84
2021/12/04 13:33:38;;;;;;;;;5.67;5.67;;;;;10.71;86.80;99865.34;4987753;28;45600;-84
2021/12/04 13:36:12;;;;;;;;;7.67;7.67;;;;;10.58;85.79;99866.72;5010276;28;45414;-84
2021/12/04 13:38:38;;;;;;;;;9.00;6.50;;;;;10.48;84.38;99867.22;5009012;28;45443;-84
2021/12/04 13:41:03;;;;;;;;;4.67;4.67;;;;;10.39;85.50;99873.06;5010883;28;49018;-84
2021/12/04 13:43:28;;;;;;;;;8.33;7.00;;;;;10.33;86.19;99871.16;5007817;28;45498;-84
2021/12/04 13:45:58;;;;;;;;;2.67;2.00;;;;;10.32;85.33;99871.09;4992850;28;45434;-84
2021/12/04 13:48:24;;;;;;;;;4.00;2.00;;;;;10.32;86.43;99863.22;5002747;28;45833;-83
2021/12/04 13:50:50;;;;;;;;;8.00;3.00;;;;;10.30;86.97;99868.44;5008982;28;45442;-82
2021/12/04 13:53:36;;;;;;;;;9.67;9.33;;;;;10.25;86.85;99860.41;5012055;28;49523;-83
2021/12/04 13:56:10;;;;;;;;;7.33;4.00;;;;;10.31;86.29;99866.69;5005209;28;45616;-83
2021/12/04 13:58:49;;;;;;;;;3.33;2.00;;;;;10.33;86.68;99859.75;5002113;28;45313;-83
2021/12/04 14:01:15;;;;;;;;;1.00;1.00;;;;;10.37;85.99;99852.03;5006283;28;45697;-83
2021/12/04 14:03:41;;;;;;;;;4.33;3.00;;;;;10.42;86.28;99848.66;5006646;28;45528;-83
2021/12/04 14:06:25;;;;;;;;;4.67;4.00;;;;;10.49;87.20;99845.38;4989360;28;45571;-83
2021/12/04 14:09:00;;;;;;;;;2.00;2.00;;;;;10.59;86.69;99850.09;5008182;28;45424;-83
2021/12/04 14:11:35;;;;;;;;;3.00;3.00;;;;;10.64;85.68;99852.00;5009700;28;46043;-83
2021/12/04 14:14:10;;;;;;;;;6.67;4.67;;;;;10.70;86.23;99853.06;4986358;28;45798;-83
2021/12/04 14:16:35;;;;;;;;;6.33;5.00;;;;;10.61;85.81;99856.31;5010922;28;45476;-83
2021/12/04 14:19:15;;;;;;;;;5.00;4.33;;;;;10.56;86.77;99870.13;5011422;28;45384;-82
2021/12/04 14:21:41;;;;;;;;;5.00;3.67;;;;;10.47;87.01;99868.06;5007787;28;45487;-83
2021/12/04 14:24:06;;;;;;;;;5.33;2.67;;;;;10.32;86.80;99868.47;5009890;28;45412;-83
2021/12/04 14:26:32;;;;;;;;;8.33;6.33;;;;;10.23;85.47;99862.06;5008096;28;45907;-83
2021/12/04 14:28:57;;;;;;;;;0.00;0.00;;;;;10.12;85.78;99872.22;5004218;28;45471;-83
2021/12/04 14:31:23;;;;;;;;;3.00;1.67;;;;;10.10;86.19;99886.13;4990390;28;46581;-83
2021/12/04 14:33:49;;;;;;;;;4.33;3.00;;;;;10.06;85.81;99893.00;5007511;28;45610;-83
2021/12/04 14:36:19;;;;;;;;;4.67;3.00;;;;;10.02;86.54;99899.88;5007457;28;45774;-86
2021/12/04 14:38:47;;;;;;;;;5.33;3.00;;;;;9.94;86.96;99894.38;5007470;28;45640;-84
2021/12/04 14:41:12;;;;;;;;;3.00;3.00;;;;;9.87;86.19;99891.50;5007214;28;45664;-84
2021/12/04 14:43:39;;;;;;;;;5.00;3.00;;;;;9.82;84.07;99907.03;5002997;28;45418;-84
2021/12/04 14:46:11;;;;;;;;;3.00;2.67;;;;;9.81;85.69;99914.03;5008658;28;45581;-85
2021/12/04 14:48:48;;;;;;;;;1.00;1.00;;;;;9.79;85.89;99913.06;4989186;28;45585;-85
2021/12/04 14:51:18;;;;;;;;;5.00;3.00;;;;;9.74;86.43;99919.00;4991792;28;47146;-85
2021/12/04 14:53:49;;;;;;;;;8.33;6.67;;;;;9.75;85.30;99919.03;5008601;28;45604;-85
2021/12/04 14:56:16;;;;;;;;;5.67;4.00;;;;;9.72;85.54;99925.06;4990651;28;45577;-85
2021/12/04 14:58:42;;;;;;;;;7.00;4.00;;;;;9.69;85.82;99935.44;4998922;28;45445;-86
2021/12/04 15:01:12;;;;;;;;;5.33;5.00;;;;;9.71;84.67;99948.59;5006143;28;45428;-86
2021/12/04 15:03:55;;;;;;;;;3.33;3.00;;;;;9.65;80.90;99945.75;4991028;28;46037;-86
2021/12/04 15:06:23;;;;;;;;;7.33;3.00;;;;;9.52;80.93;99949.66;4991746;28;45361;-85
2021/12/04 15:09:02;;;;;;;;;4.00;4.00;;;;;9.47;84.35;99959.97;5004026;28;45499;-85
2021/12/04 15:11:34;;;;;;;;;9.00;6.33;;;;;9.36;84.50;99957.84;5009643;28;45522;-84
2021/12/04 15:14:08;;;;;;;;;5.33;3.33;;;;;9.27;81.72;99966.25;5007518;28;45876;-85
2021/12/04 15:19:17;;;;;;;;;9.00;8.00;;;;;9.14;82.89;99984.94;5008414;28;45250;-87
2021/12/04 15:21:50;;;;;;;;;4.33;3.33;;;;;9.05;80.07;99988.06;5011083;28;45686;-83
2021/12/04 15:24:21;;;;;;;;;3.00;3.00;;;;;8.96;83.34;99990.34;5010040;28;45811;-84
2021/12/04 15:26:48;;;;;;;;;2.00;1.00;;;;;8.91;80.05;100006.75;5007713;28;45345;-85
2021/12/04 15:29:17;;;;;;;;;4.00;4.00;;;;;8.83;80.12;99998.59;5006854;28;45802;-85
2021/12/04 15:31:42;;;;;;;;;2.00;1.00;;;;;8.69;77.14;100005.88;5008045;28;46059;-84
2021/12/04 15:34:08;;;;;;;;;3.33;2.00;;;;;8.76;84.08;100021.84;4991967;28;45434;-84
2021/12/04 15:36:38;;;;;;;;;9.33;5.00;;;;;8.71;79.55;100013.81;5000283;28;45688;-84
2021/12/04 15:39:09;;;;;;;;;2.67;2.00;;;;;8.61;83.33;100009.91;5006747;28;45429;-84
2021/12/04 15:47:33;;;;;;;;;1.00;1.00;;;;;8.51;79.17;100019.06;5009916;28;45344;-83
2021/12/04 15:50:27;;;;;;;;;3.00;2.00;;;;;8.44;83.91;99999.59;5008115;28;45489;-83
2021/12/04 15:53:12;;;;;;;;;2.33;2.00;;;;;8.37;83.12;99998.47;4992234;28;46580;-84
2021/12/04 15:55:54;;;;;;;;;2.67;1.33;;;;;8.32;84.21;100009.56;5008191;28;45467;-83
2021/12/04 15:58:22;;;;;;;;;1.00;1.00;;;;;8.20;79.18;100009.91;4993422;28;45478;-83
2021/12/04 16:01:11;;;;;;;;;1.00;1.00;;;;;8.24;81.03;100024.91;5003438;28;47190;-84
2021/12/04 16:03:39;;;;;;;;;4.00;2.00;;;;;8.18;84.26;100017.69;5003011;28;45559;-86
2021/12/04 16:06:10;;;;;;;;;2.00;0.00;;;;;8.08;79.09;100023.34;4986916;28;48190;-88
2021/12/04 16:08:37;;;;;;;;;2.00;1.00;;;;;8.03;81.00;100033.59;5002546;28;45546;-86
2021/12/04 16:11:07;;;;;;;;;1.00;1.00;;;;;7.91;80.32;100037.44;4984034;28;45766;-87
2021/12/04 16:13:35;;;;;;;;;0.00;0.00;;;;;7.92;83.31;100043.56;5008589;28;45566;-87
2021/12/04 16:16:11;;;;;;;;;0.00;0.00;;;;;7.81;79.46;100037.84;4989665;28;45762;-87
2021/12/04 16:18:37;;;;;;;;;1.00;1.00;;;;;7.77;84.15;100054.22;5008851;28;45559;-86
2021/12/04 16:21:03;;;;;;;;;1.00;1.00;;;;;7.74;82.38;100060.19;4985290;28;45645;-87
2021/12/04 16:23:32;;;;;;;;;0.33;0.33;;;;;7.71;84.32;100060.06;5004164;28;45656;-86
2021/12/04 16:25:57;;;;;;;;;1.00;1.00;;;;;7.66;84.35;100058.94;4987618;28;45464;-86
2021/12/04 16:35:55;;;;;;;;;6.00;4.67;;;;;7.57;83.19;100094.28;5006296;28;45444;-87
2021/12/04 16:38:22;;;;;;;;;3.00;2.00;;;;;7.57;83.71;100102.13;5009658;28;45463;-86
2021/12/04 16:40:50;;;;;;;;;1.00;1.00;;;;;7.62;82.94;100123.22;4994156;28;45649;-87
2021/12/04 16:43:46;;;;;;;;;3.00;1.67;;;;;7.57;74.20;100115.19;5004307;28;45743;-87
2021/12/04 16:46:18;;;;;;;;;2.33;1.00;;;;;7.51;79.36;100132.25;5012941;28;45879;-87
2021/12/04 16:48:48;;;;;;;;;0.00;0.00;;;;;7.45;79.83;100141.59;4989466;28;45563;-86
2021/12/04 16:56:36;;;;;;;;;0.33;0.33;;;;;7.21;83.84;100117.81;5006571;28;46626;-87
2021/12/04 16:59:12;;;;;;;;;2.00;1.00;;;;;7.04;82.83;100110.94;4990896;28;45468;-90
2021/12/04 17:01:40;;;;;;;;;1.00;1.00;;;;;6.99;79.82;100122.84;5011594;28;45528;-87
2021/12/04 17:04:06;;;;;;;;;0.67;0.67;;;;;6.92;85.18;100118.16;5004015;28;46339;-89
2021/12/04 17:06:32;;;;;;;;;1.00;1.00;;;;;6.93;86.10;100120.81;4988098;28;46080;-88
2021/12/04 17:08:57;;;;;;;;;1.00;1.00;;;;;6.95;86.24;100106.97;5000923;28;45554;-87
2021/12/04 17:11:23;;;;;;;;;2.00;2.00;;;;;6.95;86.06;100097.44;5006866;28;45519;-87
2021/12/04 17:13:48;;;;;;;;;3.00;3.00;;;;;7.00;85.75;100110.69;4989493;28;47563;-87
2021/12/04 17:16:14;;;;;;;;;2.00;2.00;;;;;6.97;86.62;100116.66;5011409;28;45497;-87
2021/12/04 17:18:47;;;;;;;;;1.67;1.33;;;;;6.98;85.34;100118.47;5007335;28;45735;-87
2021/12/04 17:21:13;;;;;;;;;3.00;2.00;;;;;6.97;84.85;100123.59;4991078;28;45492;-89
2021/12/04 17:23:39;;;;;;;;;2.67;2.00;;;;;6.87;82.45;100115.31;5010183;28;45747;-85
2021/12/04 17:26:04;;;;;;;;;3.00;1.67;;;;;6.83;84.51;100115.97;4989312;28;45758;-87
2021/12/04 17:28:35;;;;;;;;;4.67;4.67;;;;;6.82;83.96;100117.69;4995079;28;46627;-86
2021/12/04 17:31:01;;;;;;;;;3.00;3.00;;;;;6.85;83.41;100123.88;5009125;28;45769;-86
2021/12/04 17:33:27;;;;;;;;;4.33;2.00;;;;;6.82;81.43;100127.22;5002075;28;45474;-86
2021/12/04 17:35:52;;;;;;;;;3.33;2.67;;;;;6.83;84.23;100139.44;5006293;28;45470;-86
2021/12/04 17:38:17;;;;;;;;;4.33;3.00;;;;;6.84;84.45;100149.06;4992824;28;45539;-86
2021/12/04 17:40:44;;;;;;;;;3.33;2.33;;;;;6.84;85.27;100159.50;5007514;28;45429;-87
2021/12/04 17:43:10;;;;;;;;;2.00;1.00;;;;;6.89;85.82;100165.84;5012089;28;46238;-86
2021/12/04 17:45:37;;;;;;;;;2.00;2.00;;;;;6.90;85.58;100167.66;5010586;28;45308;-86
2021/12/04 17:48:05;;;;;;;;;3.67;3.67;;;;;6.90;86.04;100162.44;5010596;28;52640;-86
2021/12/04 17:50:30;;;;;;;;;2.00;2.00;;;;;6.96;86.15;100168.78;4992603;28;46827;-86
2021/12/04 17:52:59;;;;;;;;;2.00;2.00;;;;;6.98;86.20;100147.16;5010597;28;45427;-86
2021/12/04 17:55:26;;;;;;;;;2.00;1.67;;;;;6.95;86.44;100133.06;4992240;28;45524;-86
2021/12/04 17:57:52;;;;;;;;;2.00;2.00;;;;;6.99;86.29;100142.81;5007469;28;46936;-85
2021/12/04 18:00:32;;;;;;;;;1.00;1.00;;;;;7.03;86.64;100152.63;4988248;28;45732;-85
2021/12/04 18:03:01;;;;;;;;;4.33;3.00;;;;;7.04;86.74;100151.78;4982610;28;47726;-85
2021/12/04 18:05:27;;;;;;;;;3.33;2.00;;;;;7.02;86.58;100164.75;4991035;28;45566;-86
2021/12/04 18:07:55;;;;;;;;;8.00;8.00;;;;;7.09;85.99;100197.28;4977008;28;45646;-86
2021/12/04 18:10:22;;;;;;;;;9.00;7.67;;;;;7.11;85.76;100195.63;5010722;28;45525;-87
2021/12/04 18:12:52;;;;;;;;;8.00;8.00;;;;;7.10;87.04;100198.19;4991372;28;48516;-86
2021/12/04 18:15:25;;;;;;;;;6.00;6.00;;;;;7.08;85.34;100195.50;4975985;28;45444;-85
2021/12/04 18:17:51;;;;;;;;;7.00;6.00;;;;;7.06;86.62;100196.25;5009472;28;45594;-86
2021/12/04 18:20:19;;;;;;;;;5.67;5.67;;;;;7.08;86.65;100207.66;4997302;28;45559;-86
2021/12/04 18:22:45;;;;;;;;;4.33;4.33;;;;;7.04;87.55;100186.59;5009400;28;45428;-86
2021/12/04 18:25:10;;;;;;;;;3.00;3.00;;;;;7.09;87.63;100188.53;4992247;28;45397;-88
2021/12/04 18:27:36;;;;;;;;;7.33;3.67;;;;;7.12;87.27;100186.09;4985805;28;45417;-87
2021/12/04 18:30:14;;;;;;;;;4.67;4.67;;;;;7.09;87.50;100179.00;5005007;28;45432;-86
2021/12/04 18:32:41;;;;;;;;;3.00;3.00;;;;;7.13;87.74;100201.84;4987039;28;47442;-86
2021/12/04 18:35:08;;;;;;;;;7.67;6.00;;;;;7.12;87.35;100173.94;5011780;28;45412;-86
2021/12/04 18:37:35;;;;;;;;;3.00;2.00;;;;;7.14;87.80;100163.56;4993860;28;45733;-86
2021/12/04 18:40:01;;;;;;;;;3.33;2.33;;;;;7.12;87.19;100167.81;5013986;28;45526;-88
2021/12/04 18:42:28;;;;;;;;;3.00;2.00;;;;;7.13;87.11;100175.75;5004752;28;46700;-86
2021/12/04 18:44:53;;;;;;;;;6.33;5.67;;;;;7.16;87.81;100182.84;4988166;28;45623;-88
2021/12/04 18:47:19;;;;;;;;;4.67;4.67;;;;;7.15;87.63;100178.44;5005486;28;45405;-92
2021/12/04 18:49:44;;;;;;;;;5.33;5.33;;;;;7.15;86.94;100184.53;4991410;28;45457;-89
2021/12/04 18:52:09;;;;;;;;;6.33;6.00;;;;;7.22;87.34;100195.28;5010565;28;45756;-88
2021/12/04 18:54:36;;;;;;;;;5.33;5.33;;;;;7.19;87.62;100180.34;5011334;28;45603;-87
2021/12/04 18:57:06;;;;;;;;;11.33;8.33;;;;;7.18;87.96;100180.28;4990870;28;47671;-86
2021/12/04 18:59:33;;;;;;;;;7.00;7.00;;;;;7.16;87.54;100169.78;5013110;28;45484;-87
2021/12/04 19:02:01;;;;;;;;;7.00;6.00;;;;;7.12;88.48;100168.72;4996377;28;47201;-86
2021/12/04 19:04:27;;;;;;;;;10.33;8.00;;;;;7.12;88.33;100173.03;5010782;28;45523;-87
2021/12/04 19:06:53;;;;;;;;;6.00;6.00;;;;;7.14;88.12;100179.22;4993967;28;45617;-86
2021/12/04 19:09:19;;;;;;;;;15.33;11.67;;;;;7.13;88.42;100180.06;4994185;28;45440;-87
2021/12/04 19:11:46;;;;;;;;;7.67;6.67;;;;;7.11;88.48;100169.53;5008978;28;46105;-87
2021/12/04 19:14:12;;;;;;;;;13.00;8.00;;;;;7.07;88.68;100169.31;5011806;28;45475;-86
2021/12/04 19:16:38;;;;;;;;;13.00;10.00;;;;;7.11;88.41;100173.88;5011520;28;45462;-87
2021/12/04 19:19:04;;;;;;;;;11.67;11.00;;;;;7.08;87.65;100173.72;4995563;28;45435;-87
2021/12/04 19:21:29;;;;;;;;;11.50;9.50;;;;;7.04;87.99;100168.34;5007975;28;46128;-86
2021/12/04 19:23:57;;;;;;;;;12.00;10.25;;;;;7.03;88.12;100163.97;5008596;28;45590;-86
2021/12/04 19:26:23;;;;;;;;;15.25;11.00;;;;;6.98;88.60;100160.22;4992988;28;45389;-86